Time;durP1;ratioP1;P1;durP2;ratioP2;P2;SDS_P1;SDS_P2;PMS_P1;PMS_P2;Temp;Humidity;BMP_temperature;BMP_pressure;BME280_temperature;BME280_humidity;BME280_pressure;Samples;Min_cycle;Max_cycle;Signal;HPM_P1;HPM_P2
2022/07/08 00:00:12;;;;;;;13.73;2.17;;;14.50;99.90;;;;;;4986823;28;116678;-79
2022/07/08 00:02:39;;;;;;;14.65;1.95;;;14.50;99.90;;;;;;4938095;28;213753;-79
2022/07/08 00:05:05;;;;;;;12.05;1.85;;;14.50;99.90;;;;;;4954658;28;206823;-79
2022/07/08 00:07:31;;;;;;;14.00;2.33;;;14.50;99.90;;;;;;4908584;28;209739;-79
2022/07/08 00:09:57;;;;;;;13.38;2.05;;;14.50;99.90;;;;;;4975027;28;117059;-79
2022/07/08 00:12:24;;;;;;;14.57;2.25;;;14.50;99.90;;;;;;4945487;28;206791;-79
2022/07/08 00:14:50;;;;;;;17.13;2.00;;;14.50;99.90;;;;;;4979571;28;24071;-80
2022/07/08 00:17:16;;;;;;;13.13;1.75;;;14.40;99.90;;;;;;4925086;28;207737;-79
2022/07/08 00:19:42;;;;;;;10.60;1.77;;;14.40;99.90;;;;;;4998117;28;20400;-79
2022/07/08 00:22:08;;;;;;;11.80;1.98;;;14.40;99.90;;;;;;4939867;28;213527;-79
2022/07/08 00:24:34;;;;;;;13.95;1.90;;;14.40;99.90;;;;;;4978384;28;242793;-79
2022/07/08 00:27:01;;;;;;;10.50;1.95;;;14.40;99.90;;;;;;4965053;28;152513;-80
2022/07/08 00:29:27;;;;;;;15.70;2.60;;;14.30;99.90;;;;;;4992122;28;271781;-79
2022/07/08 00:31:53;;;;;;;10.82;1.80;;;14.30;99.90;;;;;;4957172;28;208562;-79
2022/07/08 00:34:19;;;;;;;15.48;1.90;;;14.30;99.90;;;;;;4981864;28;272196;-79
2022/07/08 00:36:45;;;;;;;13.07;1.95;;;14.30;99.90;;;;;;4944189;28;214138;-79
2022/07/08 00:39:12;;;;;;;12.98;2.35;;;14.30;99.90;;;;;;4962757;28;258164;-79
2022/07/08 00:41:39;;;;;;;12.55;1.90;;;14.20;99.90;;;;;;4925606;28;206846;-79
2022/07/08 00:44:05;;;;;;;12.32;2.13;;;14.20;99.90;;;;;;4976135;28;20046;-79
2022/07/08 00:46:31;;;;;;;14.60;2.10;;;14.20;99.90;;;;;;4942731;28;214157;-79
2022/07/08 00:48:57;;;;;;;13.45;2.05;;;14.20;99.90;;;;;;4996689;28;20053;-79
2022/07/08 00:51:25;;;;;;;13.57;2.03;;;14.20;99.90;;;;;;4945376;28;210036;-79
2022/07/08 00:53:52;;;;;;;14.93;1.90;;;14.20;99.90;;;;;;4982090;28;20054;-79
2022/07/08 00:56:20;;;;;;;14.65;1.70;;;14.10;99.90;;;;;;4942302;28;210577;-79
2022/07/08 00:58:49;;;;;;;12.25;1.90;;;14.10;99.90;;;;;;4992855;28;20073;-80
2022/07/08 01:01:17;;;;;;;15.13;1.95;;;14.10;99.90;;;;;;4941743;28;206119;-78
2022/07/08 01:03:46;;;;;;;14.02;2.10;;;14.10;99.90;;;;;;4992376;28;20053;-79
2022/07/08 01:06:13;;;;;;;17.48;1.80;;;14.10;99.90;;;;;;4898154;28;282054;-79
2022/07/08 01:08:40;;;;;;;11.27;2.00;;;14.10;99.90;;;;;;4985735;28;20053;-79
2022/07/08 01:11:10;;;;;;;13.27;2.03;;;14.10;99.90;;;;;;4912454;28;245585;-79
2022/07/08 01:13:38;;;;;;;13.47;2.17;;;14.00;99.90;;;;;;4973458;28;20069;-79
2022/07/08 01:16:05;;;;;;;15.50;2.28;;;14.00;99.90;;;;;;4933858;28;211644;-79
2022/07/08 01:18:31;;;;;;;13.70;2.13;;;14.00;99.90;;;;;;4978751;28;20071;-79
2022/07/08 01:20:58;;;;;;;12.00;1.92;;;14.00;99.90;;;;;;4948970;28;214977;-79
2022/07/08 01:23:24;;;;;;;11.02;2.42;;;13.90;99.90;;;;;;4997763;28;20057;-79
2022/07/08 01:25:52;;;;;;;12.43;2.17;;;13.90;99.90;;;;;;4923301;28;204772;-79
2022/07/08 01:28:18;;;;;;;14.45;2.10;;;13.90;99.90;;;;;;4980039;28;20065;-79
2022/07/08 01:30:45;;;;;;;15.50;2.10;;;13.90;99.90;;;;;;4947252;28;203613;-79
2022/07/08 01:33:12;;;;;;;10.88;1.70;;;13.80;99.90;;;;;;4998584;28;20058;-79
2022/07/08 01:35:38;;;;;;;12.10;1.90;;;13.80;99.90;;;;;;4953217;28;210048;-78
2022/07/08 01:38:04;;;;;;;14.57;2.00;;;13.70;99.90;;;;;;4987008;28;20049;-79
2022/07/08 01:40:30;;;;;;;17.73;2.20;;;13.70;99.90;;;;;;4942565;28;205201;-79
2022/07/08 01:42:56;;;;;;;13.88;2.20;;;13.70;99.90;;;;;;5007945;28;20061;-79
2022/07/08 01:45:23;;;;;;;13.57;2.33;;;13.60;99.90;;;;;;4960425;28;265563;-79
2022/07/08 01:47:49;;;;;;;14.40;2.50;;;13.50;99.90;;;;;;4985966;28;21282;-79
2022/07/08 01:50:15;;;;;;;13.65;2.10;;;13.50;99.90;;;;;;4986072;28;141137;-76
2022/07/08 01:52:41;;;;;;;14.48;2.30;;;13.50;99.90;;;;;;4934212;28;171444;-79
2022/07/08 01:55:07;;;;;;;13.30;2.40;;;13.40;99.90;;;;;;4975997;28;68345;-79
2022/07/08 01:57:34;;;;;;;15.10;2.30;;;13.30;99.90;;;;;;4944997;28;205409;-79
2022/07/08 02:00:01;;;;;;;16.70;2.08;;;13.20;99.90;;;;;;4994914;28;77275;-79
2022/07/08 02:02:27;;;;;;;13.35;2.53;;;13.20;99.90;;;;;;4945747;28;206176;-79
2022/07/08 02:04:53;;;;;;;21.50;2.30;;;13.10;99.90;;;;;;4968452;28;239282;-79
2022/07/08 02:07:19;;;;;;;18.17;2.42;;;13.10;99.90;;;;;;4938501;28;148479;-79
2022/07/08 02:09:45;;;;;;;13.35;2.40;;;13.00;99.90;;;;;;4985545;28;270715;-79
2022/07/08 02:12:21;;;;;;;14.00;2.47;;;13.00;99.90;;;;;;4937400;28;206270;-79
2022/07/08 02:14:50;;;;;;;11.77;2.08;;;13.00;99.90;;;;;;4988951;28;111387;-79
2022/07/08 02:17:18;;;;;;;15.25;2.25;;;12.90;99.90;;;;;;4953958;28;213884;-79
2022/07/08 02:19:44;;;;;;;14.52;2.42;;;12.90;99.90;;;;;;4991671;28;144202;-79
2022/07/08 02:22:11;;;;;;;14.20;2.33;;;12.90;99.90;;;;;;4937506;28;211307;-79
2022/07/08 02:24:37;;;;;;;16.15;2.22;;;12.90;99.90;;;;;;4973515;28;24098;-79
2022/07/08 02:27:04;;;;;;;13.75;2.15;;;13.00;99.90;;;;;;4946718;28;209461;-80
2022/07/08 02:29:31;;;;;;;16.60;2.30;;;13.00;99.90;;;;;;4980731;28;258584;-79
2022/07/08 02:31:58;;;;;;;14.10;2.30;;;13.00;99.90;;;;;;4930011;28;218211;-79
2022/07/08 02:34:25;;;;;;;13.57;2.03;;;13.00;99.90;;;;;;4976275;28;259027;-79
2022/07/08 02:36:51;;;;;;;17.15;2.70;;;13.00;99.90;;;;;;4954697;28;89471;-79
2022/07/08 02:39:17;;;;;;;20.33;2.90;;;12.90;99.90;;;;;;4963418;28;272973;-80
2022/07/08 02:41:44;;;;;;;13.10;2.90;;;12.90;99.90;;;;;;4963147;28;208977;-79
2022/07/08 02:44:10;;;;;;;17.40;2.85;;;12.80;99.90;;;;;;4995110;28;268347;-79
2022/07/08 02:46:38;;;;;;;17.00;2.80;;;12.80;99.90;;;;;;4945113;28;208567;-79
2022/07/08 02:49:04;;;;;;;14.95;2.95;;;12.70;99.90;;;;;;4973565;28;20057;-79
2022/07/08 02:51:30;;;;;;;16.77;3.25;;;12.70;99.90;;;;;;4936865;28;245128;-79
2022/07/08 02:53:56;;;;;;;19.65;3.25;;;12.70;99.90;;;;;;4991326;28;20049;-79
2022/07/08 02:56:23;;;;;;;18.15;3.38;;;12.60;99.90;;;;;;4923594;28;184995;-79
2022/07/08 02:58:49;;;;;;;16.38;3.55;;;12.60;99.90;;;;;;4978630;28;20046;-80
2022/07/08 03:01:15;;;;;;;14.73;3.92;;;12.50;99.90;;;;;;4945977;28;208175;-79
2022/07/08 03:03:41;;;;;;;19.50;3.83;;;12.50;99.90;;;;;;4995382;28;20460;-79
2022/07/08 03:06:08;;;;;;;14.77;3.35;;;12.50;99.90;;;;;;4921426;28;209964;-81
2022/07/08 03:08:34;;;;;;;14.98;3.28;;;12.40;99.90;;;;;;4990019;28;20034;-80
2022/07/08 03:11:00;;;;;;;20.95;3.28;;;12.40;99.90;;;;;;4963291;28;204635;-78
2022/07/08 03:13:26;;;;;;;13.68;3.30;;;12.40;99.90;;;;;;5013394;28;20041;-79
2022/07/08 03:15:52;;;;;;;19.17;3.20;;;12.40;99.90;;;;;;4929087;28;208778;-78
2022/07/08 03:18:18;;;;;;;18.58;3.45;;;12.30;99.90;;;;;;5000910;28;20419;-78
2022/07/08 03:20:44;;;;;;;13.13;3.05;;;12.30;99.90;;;;;;4946617;28;206047;-78
2022/07/08 03:23:11;;;;;;;16.60;3.38;;;12.30;99.90;;;;;;4972370;28;20046;-79
2022/07/08 03:25:37;;;;;;;14.55;3.05;;;12.20;99.90;;;;;;4948833;28;188076;-79
2022/07/08 03:28:04;;;;;;;15.50;3.40;;;12.20;99.90;;;;;;4976905;28;20058;-77
2022/07/08 03:30:31;;;;;;;13.98;3.35;;;12.20;99.90;;;;;;4922607;28;205899;-78
2022/07/08 03:32:57;;;;;;;16.70;3.53;;;12.20;99.90;;;;;;4972832;28;20054;-78
2022/07/08 03:35:23;;;;;;;14.02;3.80;;;12.20;99.90;;;;;;4949950;28;206220;-78
2022/07/08 03:37:50;;;;;;;18.45;3.95;;;12.10;99.90;;;;;;4997427;28;20582;-78
2022/07/08 03:43:02;;;;;;;14.10;4.05;;;12.10;99.90;;;;;;4960059;28;87994;-77
2022/07/08 03:45:29;;;;;;;20.70;3.90;;;12.10;99.90;;;;;;4926113;28;249973;-78
2022/07/08 03:47:56;;;;;;;20.80;4.00;;;12.10;99.90;;;;;;4968617;28;20514;-78
2022/07/08 03:50:22;;;;;;;18.52;4.00;;;12.10;99.90;;;;;;4948806;28;201606;-78
2022/07/08 03:52:48;;;;;;;16.75;3.70;;;12.10;99.90;;;;;;4986932;28;20074;-78
2022/07/08 03:55:14;;;;;;;21.60;3.85;;;12.20;99.90;;;;;;4967881;28;114245;-78
2022/07/08 03:57:41;;;;;;;17.15;3.95;;;12.20;99.90;;;;;;4969793;28;35367;-78
2022/07/08 04:00:08;;;;;;;15.90;3.72;;;12.20;99.90;;;;;;4987070;28;249373;-78
2022/07/08 04:02:34;;;;;;;24.75;4.65;;;12.30;99.90;;;;;;4925462;28;211785;-78
2022/07/08 04:05:01;;;;;;;16.02;4.38;;;12.30;99.90;;;;;;4974707;28;149667;-78
2022/07/08 04:07:27;;;;;;;16.90;4.20;;;12.40;99.90;;;;;;4950263;28;204199;-79
2022/07/08 04:09:53;;;;;;;17.83;4.22;;;12.40;99.90;;;;;;4986347;28;189375;-79
2022/07/08 04:12:19;;;;;;;18.85;4.55;;;12.50;99.90;;;;;;4968616;28;147742;-80
2022/07/08 04:14:46;;;;;;;18.58;4.10;;;12.60;99.90;;;;;;4980672;28;220155;-79
2022/07/08 04:17:12;;;;;;;17.05;4.00;;;12.60;99.90;;;;;;4963677;28;82354;-79
2022/07/08 04:19:38;;;;;;;17.23;4.47;;;12.70;99.90;;;;;;4996394;28;204711;-79
2022/07/08 04:22:04;;;;;;;15.30;3.95;;;12.70;99.90;;;;;;4947091;28;210256;-79
2022/07/08 04:24:30;;;;;;;15.98;4.03;;;12.80;99.90;;;;;;4988598;28;253446;-79
2022/07/08 04:26:56;;;;;;;19.70;4.07;;;12.90;99.90;;;;;;4954171;28;212712;-79
2022/07/08 04:29:22;;;;;;;18.00;3.83;;;12.90;99.90;;;;;;4962785;28;250943;-78
2022/07/08 04:31:49;;;;;;;16.45;3.70;;;13.00;99.90;;;;;;4946718;28;210126;-79
2022/07/08 04:34:15;;;;;;;15.97;4.00;;;13.00;99.90;;;;;;4977914;28;250922;-79
2022/07/08 04:36:41;;;;;;;15.90;3.65;;;13.10;99.90;;;;;;4959662;28;200903;-80
2022/07/08 04:39:08;;;;;;;16.58;3.60;;;13.10;99.90;;;;;;4990903;28;253028;-79
2022/07/08 04:41:34;;;;;;;23.83;4.00;;;13.20;99.90;;;;;;4953519;28;216051;-79
2022/07/08 04:44:00;;;;;;;17.25;4.32;;;13.20;99.90;;;;;;4990928;28;20058;-79
2022/07/08 04:46:27;;;;;;;19.38;3.65;;;13.30;99.90;;;;;;4936880;28;205594;-79
2022/07/08 04:48:53;;;;;;;14.93;3.70;;;13.30;99.90;;;;;;5012186;28;20725;-79
2022/07/08 04:51:20;;;;;;;17.88;4.10;;;13.40;99.90;;;;;;4943924;28;209572;-79
2022/07/08 04:53:47;;;;;;;16.25;3.70;;;13.50;99.90;;;;;;4995130;28;20530;-79
2022/07/08 04:56:14;;;;;;;19.95;3.88;;;13.60;99.90;;;;;;4914466;28;204372;-78
2022/07/08 04:58:40;;;;;;;14.30;3.65;;;13.70;99.90;;;;;;4984369;28;20053;-79
2022/07/08 05:01:06;;;;;;;15.55;3.58;;;13.70;99.90;;;;;;4942186;28;211401;-79
2022/07/08 05:03:32;;;;;;;15.98;3.20;;;13.80;99.90;;;;;;4980760;28;20050;-78
2022/07/08 05:05:58;;;;;;;13.85;3.92;;;13.90;99.90;;;;;;4929989;28;205794;-78
2022/07/08 05:08:24;;;;;;;18.63;3.25;;;13.90;99.90;;;;;;4975263;28;20430;-79
2022/07/08 05:10:51;;;;;;;12.30;3.20;;;14.00;99.90;;;;;;4925725;28;212798;-79
2022/07/08 05:13:17;;;;;;;13.45;2.95;;;14.10;99.90;;;;;;4978404;28;20431;-78
2022/07/08 05:15:43;;;;;;;18.40;3.10;;;14.10;99.90;;;;;;4940096;28;258728;-79
2022/07/08 05:18:10;;;;;;;16.42;3.25;;;14.20;99.90;;;;;;4980319;28;20042;-79
2022/07/08 05:20:36;;;;;;;13.52;3.35;;;14.30;99.90;;;;;;4931971;28;258223;-79
2022/07/08 05:23:03;;;;;;;15.48;3.10;;;14.30;99.90;;;;;;4996195;28;20061;-79
2022/07/08 05:25:29;;;;;;;16.92;2.70;;;14.40;99.90;;;;;;4922225;28;215968;-78
2022/07/08 05:27:55;;;;;;;19.10;3.00;;;14.40;99.90;;;;;;4989082;28;20061;-78
2022/07/08 05:30:21;;;;;;;16.95;2.80;;;14.50;99.90;;;;;;4958998;28;206450;-78
2022/07/08 05:32:47;;;;;;;13.85;2.40;;;14.60;99.90;;;;;;4990840;28;20050;-78
2022/07/08 05:35:14;;;;;;;15.80;2.95;;;14.70;99.90;;;;;;4973407;28;74241;-78
2022/07/08 05:37:40;;;;;;;14.88;2.78;;;14.80;99.90;;;;;;4931290;28;265565;-79
2022/07/08 05:40:09;;;;;;;12.45;2.30;;;14.80;99.90;;;;;;4984531;28;155840;-79
2022/07/08 05:42:35;;;;;;;13.35;2.85;;;14.90;99.90;;;;;;4954750;28;206039;-78
2022/07/08 05:45:02;;;;;;;17.38;2.58;;;15.00;99.90;;;;;;4984256;28;61566;-78
2022/07/08 05:47:28;;;;;;;16.65;2.78;;;15.10;99.90;;;;;;4941302;28;202972;-78
2022/07/08 05:49:55;;;;;;;12.50;2.50;;;15.10;99.90;;;;;;4970796;28;161707;-79
2022/07/08 05:52:21;;;;;;;15.90;2.95;;;15.10;99.90;;;;;;4950170;28;166531;-79
2022/07/08 05:54:48;;;;;;;16.90;2.40;;;15.10;99.90;;;;;;4972779;28;127263;-79
2022/07/08 05:57:15;;;;;;;19.10;3.22;;;15.30;99.90;;;;;;4932549;28;205144;-79
2022/07/08 05:59:42;;;;;;;15.68;2.63;;;15.40;99.90;;;;;;4996446;28;246777;-78
2022/07/08 06:02:08;;;;;;;16.38;2.63;;;15.50;99.90;;;;;;4927581;28;206105;-78
2022/07/08 06:04:36;;;;;;;15.20;2.90;;;15.70;99.90;;;;;;4965664;28;211813;-79
2022/07/08 06:07:02;;;;;;;16.10;2.50;;;15.70;99.90;;;;;;4941995;28;215264;-79
2022/07/08 06:09:29;;;;;;;16.85;2.75;;;15.80;99.90;;;;;;4981030;28;256190;-79
2022/07/08 06:11:55;;;;;;;18.40;2.78;;;15.90;99.90;;;;;;4948561;28;206517;-79
2022/07/08 06:14:21;;;;;;;18.73;2.50;;;16.00;99.90;;;;;;4981122;28;258178;-79
2022/07/08 06:16:48;;;;;;;19.08;3.20;;;16.10;99.90;;;;;;4948539;28;212301;-78
2022/07/08 06:19:15;;;;;;;15.68;2.53;;;16.10;99.90;;;;;;4973720;28;262024;-79
2022/07/08 06:21:42;;;;;;;15.73;2.55;;;16.20;99.90;;;;;;4958974;28;196581;-79
2022/07/08 06:24:08;;;;;;;17.65;3.20;;;16.30;99.90;;;;;;4984562;28;248915;-79
2022/07/08 06:26:35;;;;;;;16.00;2.55;;;16.40;99.90;;;;;;4947202;28;215120;-79
2022/07/08 06:29:01;;;;;;;14.70;2.08;;;16.50;99.90;;;;;;4997027;28;20851;-79
2022/07/08 06:31:28;;;;;;;13.50;2.50;;;16.60;99.90;;;;;;4926567;28;210878;-79
2022/07/08 06:33:57;;;;;;;16.83;2.92;;;16.70;99.90;;;;;;4988695;28;20088;-79
2022/07/08 06:36:24;;;;;;;18.92;3.00;;;16.80;99.90;;;;;;4927615;28;226113;-80
2022/07/08 06:38:51;;;;;;;15.07;2.50;;;16.80;99.90;;;;;;4986525;28;20058;-79
2022/07/08 06:41:18;;;;;;;16.27;2.58;;;16.90;99.90;;;;;;4941978;28;207695;-79
2022/07/08 06:43:45;;;;;;;14.77;2.50;;;17.00;99.90;;;;;;4973320;28;20050;-79
2022/07/08 06:46:11;;;;;;;15.25;2.10;;;17.00;99.90;;;;;;4935682;28;200052;-79
2022/07/08 06:48:37;;;;;;;14.90;2.55;;;17.00;99.90;;;;;;4991776;28;20057;-79
2022/07/08 06:51:04;;;;;;;12.35;2.25;;;17.00;99.90;;;;;;4935241;28;205254;-79
2022/07/08 06:56:16;;;;;;;15.13;2.30;;;17.20;99.90;;;;;;4942308;28;251558;-79
2022/07/08 06:58:42;;;;;;;14.85;2.00;;;17.30;99.90;;;;;;5027350;28;20063;-79
2022/07/08 07:01:10;;;;;;;15.23;2.33;;;17.30;99.90;;;;;;4925667;28;208118;-78
2022/07/08 07:03:37;;;;;;;19.70;2.67;;;17.30;99.90;;;;;;5004924;28;20064;-78
2022/07/08 07:06:04;;;;;;;16.10;2.30;;;17.30;99.90;;;;;;4914110;28;220739;-78
2022/07/08 07:08:30;;;;;;;12.35;1.92;;;17.30;99.90;;;;;;5016516;28;20060;-78
2022/07/08 07:10:56;;;;;;;16.55;2.53;;;17.40;99.90;;;;;;4940961;28;222070;-79
2022/07/08 07:13:22;;;;;;;14.25;2.40;;;17.50;99.90;;;;;;5028090;28;20478;-79
2022/07/08 07:15:49;;;;;;;12.68;2.40;;;17.60;99.90;;;;;;4958672;28;247408;-79
2022/07/08 07:18:15;;;;;;;12.95;2.35;;;17.80;99.90;;;;;;5022267;28;20050;-79
2022/07/08 07:20:41;;;;;;;15.25;2.42;;;17.90;99.90;;;;;;4964651;28;209150;-79
2022/07/08 07:23:07;;;;;;;14.15;2.00;;;18.00;99.90;;;;;;5011062;28;20060;-79
2022/07/08 07:25:33;;;;;;;15.00;2.20;;;18.20;99.90;;;;;;4980867;28;205328;-78
2022/07/08 07:27:59;;;;;;;15.35;2.30;;;18.30;99.90;;;;;;5014969;28;20426;-79
2022/07/08 07:30:26;;;;;;;15.13;2.88;;;18.40;99.90;;;;;;4977300;28;188780;-79
2022/07/08 07:32:53;;;;;;;14.52;2.17;;;18.50;99.90;;;;;;5017591;28;20462;-79
2022/07/08 07:35:19;;;;;;;14.50;2.45;;;18.50;99.90;;;;;;4955987;28;190741;-79
2022/07/08 07:37:45;;;;;;;12.50;2.40;;;18.60;99.90;;;;;;4954750;28;206703;-79
2022/07/08 07:40:11;;;;;;;15.20;1.95;;;18.70;99.90;;;;;;4993174;28;237002;-80
2022/07/08 07:42:38;;;;;;;16.33;2.50;;;18.80;99.90;;;;;;4951487;28;210597;-79
2022/07/08 07:45:05;;;;;;;14.40;2.20;;;18.80;99.90;;;;;;4992678;28;103835;-80
2022/07/08 07:47:32;;;;;;;14.32;2.35;;;18.80;99.90;;;;;;4963547;28;199545;-79
2022/07/08 07:49:58;;;;;;;15.73;2.22;;;18.70;99.90;;;;;;5002834;28;225491;-79
2022/07/08 07:52:24;;;;;;;12.85;2.25;;;18.70;99.90;;;;;;4950280;28;209533;-79
2022/07/08 07:54:50;;;;;;;14.23;2.33;;;18.70;99.90;;;;;;4993827;28;60605;-80
2022/07/08 07:57:17;;;;;;;11.05;1.95;;;18.80;99.90;;;;;;4965533;28;203593;-79
2022/07/08 07:59:44;;;;;;;14.15;2.30;;;18.80;99.90;;;;;;4990984;28;128148;-79
2022/07/08 08:02:10;;;;;;;11.73;2.10;;;18.80;99.90;;;;;;4961069;28;205950;-79
2022/07/08 08:04:36;;;;;;;13.80;2.25;;;18.90;99.90;;;;;;4962793;28;186229;-79
2022/07/08 08:07:02;;;;;;;10.50;1.85;;;19.00;99.90;;;;;;4956880;28;207362;-79
2022/07/08 08:09:28;;;;;;;14.15;2.20;;;19.00;99.90;;;;;;5009620;28;268538;-79
2022/07/08 08:11:55;;;;;;;12.48;2.28;;;19.00;99.90;;;;;;4932527;28;210717;-79
2022/07/08 08:14:21;;;;;;;15.15;2.55;;;19.30;99.90;;;;;;4976869;28;250700;-79
2022/07/08 08:16:47;;;;;;;11.25;2.08;;;19.40;99.90;;;;;;4943377;28;205088;-80
2022/07/08 08:19:13;;;;;;;10.55;2.03;;;19.30;99.90;;;;;;4985876;28;258042;-79
2022/07/08 08:21:39;;;;;;;12.73;2.08;;;19.30;99.90;;;;;;4963783;28;213847;-80
2022/07/08 08:24:06;;;;;;;13.57;2.60;;;19.60;99.90;;;;;;5005340;28;20065;-79
2022/07/08 08:26:32;;;;;;;12.55;2.15;;;19.80;99.90;;;;;;4915764;28;273530;-80
2022/07/08 08:28:58;;;;;;;13.63;2.15;;;20.00;99.90;;;;;;4991556;28;20045;-80
2022/07/08 08:31:25;;;;;;;14.00;2.30;;;20.10;99.90;;;;;;4939612;28;233471;-80
2022/07/08 08:33:51;;;;;;;13.38;2.20;;;20.10;99.90;;;;;;4999835;28;20058;-80
2022/07/08 08:36:17;;;;;;;14.30;2.50;;;20.20;99.90;;;;;;4926631;28;255892;-80
2022/07/08 08:38:43;;;;;;;13.70;2.45;;;20.30;99.90;;;;;;4998187;28;20058;-79
2022/07/08 08:41:10;;;;;;;11.43;2.22;;;20.30;99.90;;;;;;4926096;28;215013;-78
2022/07/08 08:43:36;;;;;;;13.80;2.50;;;20.20;99.90;;;;;;4993415;28;20053;-79
2022/07/08 08:46:02;;;;;;;13.27;2.28;;;20.20;99.90;;;;;;4953857;28;98219;-79
2022/07/08 08:48:35;;;;;;;12.95;2.30;;;20.00;99.90;;;;;;5004069;28;20068;-80
2022/07/08 08:51:03;;;;;;;13.80;2.60;;;20.00;99.90;;;;;;4951441;28;208875;-80
2022/07/08 08:53:37;;;;;;;13.25;2.20;;;19.90;99.90;;;;;;4978977;28;20475;-80
2022/07/08 08:56:07;;;;;;;12.35;1.92;;;19.90;99.90;;;;;;4925115;28;264213;-80
2022/07/08 08:58:35;;;;;;;13.40;2.00;;;19.90;99.90;;;;;;5001119;28;20038;-80
2022/07/08 09:01:02;;;;;;;17.45;2.83;;;19.90;99.90;;;;;;4947876;28;236530;-80
2022/07/08 09:03:28;;;;;;;13.43;2.20;;;19.90;99.90;;;;;;5008679;28;20133;-80
2022/07/08 09:05:54;;;;;;;11.55;2.30;;;19.90;99.90;;;;;;4935331;28;206678;-80
2022/07/08 09:08:20;;;;;;;13.43;2.40;;;20.00;99.90;;;;;;4993222;28;20058;-80
2022/07/08 09:10:47;;;;;;;12.63;2.30;;;20.10;99.90;;;;;;4936199;28;223976;-80
2022/07/08 09:13:15;;;;;;;13.05;2.17;;;20.20;99.90;;;;;;4988935;28;20051;-79
2022/07/08 09:15:43;;;;;;;11.43;2.30;;;20.30;99.90;;;;;;4954709;28;207097;-79
2022/07/08 09:18:20;;;;;;;9.30;1.90;;;20.40;99.90;;;;;;4985708;28;20046;-80
2022/07/08 09:20:51;;;;;;;11.63;2.55;;;20.50;99.90;;;;;;4954187;28;204725;-80
2022/07/08 09:23:18;;;;;;;;;;;20.70;99.90;;;;;;4989327;28;20612;-80
2022/07/08 09:25:49;;;;;;;11.85;2.35;;;20.70;99.90;;;;;;4941624;28;205471;-80
2022/07/08 09:28:16;;;;;;;9.48;1.90;;;20.90;99.90;;;;;;4972309;28;20061;-80
2022/07/08 09:30:44;;;;;;;12.15;2.30;;;20.90;99.90;;;;;;4948851;28;216279;-80
2022/07/08 09:33:11;;;;;;;9.93;2.15;;;20.90;99.90;;;;;;5003510;28;20057;-80
2022/07/08 09:35:40;;;;;;;11.97;2.17;;;20.90;99.90;;;;;;4927271;28;224310;-79
2022/07/08 09:38:07;;;;;;;11.57;2.13;;;20.80;99.90;;;;;;4993676;28;20061;-80
2022/07/08 09:40:35;;;;;;;10.43;2.23;;;20.70;99.90;;;;;;4942878;28;228060;-80
2022/07/08 09:43:12;;;;;;;12.05;1.88;;;20.80;99.90;;;;;;4994902;28;20145;-80
2022/07/08 09:45:39;;;;;;;9.82;1.75;;;20.80;99.90;;;;;;4949914;28;228636;-80
2022/07/08 09:48:07;;;;;;;11.90;2.00;;;20.90;99.90;;;;;;4983304;28;20058;-80
2022/07/08 09:50:41;;;;;;;11.77;2.10;;;20.80;99.90;;;;;;4953686;28;213219;-81
2022/07/08 09:53:18;;;;;;;11.65;2.03;;;20.90;99.90;;;;;;5010504;28;20065;-81
2022/07/08 09:55:51;;;;;;;11.68;1.85;;;20.80;99.90;;;;;;4906561;28;212250;-81
2022/07/08 09:58:23;;;;;;;14.32;2.00;;;20.70;99.90;;;;;;4986254;28;20538;-81
2022/07/08 10:00:50;;;;;;;11.82;2.22;;;20.60;99.90;;;;;;4944815;28;131380;-81
2022/07/08 10:03:18;;;;;;;12.95;2.28;;;20.60;99.90;;;;;;4995491;28;20062;-81
2022/07/08 10:05:45;;;;;;;10.80;2.20;;;20.50;99.90;;;;;;4923867;28;223957;-81
2022/07/08 10:08:13;;;;;;;9.35;1.85;;;20.40;99.90;;;;;;4989794;28;20050;-81
2022/07/08 10:10:42;;;;;;;12.48;2.30;;;20.40;99.90;;;;;;4936331;28;214791;-81
2022/07/08 10:13:08;;;;;;;9.50;2.05;;;20.30;99.90;;;;;;5022771;28;20038;-80
2022/07/08 10:15:36;;;;;;;14.98;2.47;;;20.20;99.90;;;;;;4960524;28;205694;-80
2022/07/08 10:18:14;;;;;;;13.88;2.50;;;20.30;99.90;;;;;;5012175;28;20541;-81
2022/07/08 10:20:46;;;;;;;11.85;2.33;;;20.40;99.90;;;;;;4965289;28;212780;-80
2022/07/08 10:23:19;;;;;;;10.55;2.30;;;20.40;99.90;;;;;;5005842;28;20050;-80
2022/07/08 10:25:46;;;;;;;8.95;2.20;;;20.60;99.90;;;;;;4969368;28;119729;-81
2022/07/08 10:28:12;;;;;;;11.18;1.90;;;20.70;99.90;;;;;;5021719;28;20056;-81
2022/07/08 10:30:52;;;;;;;10.63;2.30;;;20.80;99.90;;;;;;4957595;28;231892;-81
2022/07/08 10:33:30;;;;;;;9.15;1.80;;;21.10;99.90;;;;;;4991353;28;20065;-80
2022/07/08 10:36:06;;;;;;;10.55;2.00;;;21.20;99.90;;;;;;4931393;28;208227;-81
2022/07/08 10:38:34;;;;;;;11.65;2.22;;;21.20;99.90;;;;;;5002806;28;20052;-81
2022/07/08 10:41:02;;;;;;;10.60;2.15;;;21.10;99.90;;;;;;4951957;28;201558;-81
2022/07/08 10:43:29;;;;;;;11.45;2.38;;;21.10;99.90;;;;;;4987545;28;20053;-81
2022/07/08 10:46:06;;;;;;;15.65;2.20;;;21.20;99.90;;;;;;4949015;28;204463;-81
2022/07/08 10:48:41;;;;;;;11.77;2.17;;;21.20;99.90;;;;;;5002564;28;20503;-81
2022/07/08 10:51:20;;;;;;;11.57;1.90;;;21.30;99.90;;;;;;4949309;28;113533;-82
2022/07/08 10:53:47;;;;;;;10.82;2.03;;;21.60;99.90;;;;;;4996624;28;20058;-82
2022/07/08 10:56:54;;;;;;;12.15;1.90;;;21.80;99.90;;;;;;4946196;28;206553;-81
2022/07/08 10:59:21;;;;;;;11.43;2.10;;;21.80;99.80;;;;;;4986300;28;263558;-82
2022/07/08 11:01:51;;;;;;;12.57;2.33;;;21.60;99.90;;;;;;4955966;28;208295;-81
2022/07/08 11:04:29;;;;;;;11.45;2.25;;;21.70;99.90;;;;;;4979201;28;261168;-81
2022/07/08 11:07:38;;;;;;;10.07;1.80;;;21.80;99.90;;;;;;4961958;28;214502;-81
2022/07/08 11:10:07;;;;;;;10.75;2.00;;;22.00;99.90;;;;;;5001210;28;49519;-81
2022/07/08 11:12:41;;;;;;;10.85;1.98;;;22.70;99.90;;;;;;4954377;28;206206;-81
2022/07/08 11:15:10;;;;;;;11.27;2.33;;;23.10;99.90;;;;;;4992393;28;190619;-81
2022/07/08 11:17:38;;;;;;;10.10;1.85;;;23.30;99.30;;;;;;4944432;28;213648;-81
2022/07/08 11:20:09;;;;;;;9.68;1.88;;;23.40;99.10;;;;;;5009992;28;147731;-81
2022/07/08 11:22:37;;;;;;;12.00;2.22;;;23.30;97.20;;;;;;4970438;28;209882;-81
2022/07/08 11:25:05;;;;;;;9.95;2.22;;;23.00;97.80;;;;;;4995975;28;119560;-81
2022/07/08 11:27:33;;;;;;;9.73;1.95;;;23.10;97.50;;;;;;4963996;28;205464;-80
2022/07/08 11:30:02;;;;;;;9.18;1.90;;;23.10;97.70;;;;;;4985608;28;198047;-81
2022/07/08 11:32:30;;;;;;;10.90;2.10;;;23.10;97.70;;;;;;4955183;28;203814;-80
2022/07/08 11:34:57;;;;;;;9.23;1.90;;;23.20;97.60;;;;;;4999421;28;220191;-81
2022/07/08 11:37:23;;;;;;;10.70;1.90;;;23.40;97.30;;;;;;4980790;28;212727;-80
2022/07/08 11:39:50;;;;;;;10.23;1.98;;;24.00;97.60;;;;;;5003071;28;146678;-81
2022/07/08 11:42:16;;;;;;;10.85;2.22;;;24.00;96.70;;;;;;4972997;28;127968;-81
2022/07/08 11:44:44;;;;;;;10.88;2.15;;;24.30;96.60;;;;;;4987971;28;129813;-83
2022/07/08 11:47:12;;;;;;;10.38;2.17;;;24.50;95.70;;;;;;4964952;28;217037;-81
2022/07/08 11:49:45;;;;;;;9.05;2.00;;;24.50;96.60;;;;;;4984877;28;145886;-81
2022/07/08 11:52:15;;;;;;;11.50;2.30;;;24.20;94.80;;;;;;4955804;28;224249;-81
2022/07/08 11:54:45;;;;;;;9.02;2.00;;;23.70;96.20;;;;;;5009694;28;153432;-82
2022/07/08 11:57:12;;;;;;;11.43;2.08;;;23.70;96.70;;;;;;4960458;28;204940;-81
2022/07/08 11:59:38;;;;;;;11.98;2.05;;;23.70;96.60;;;;;;4981047;28;217703;-82
2022/07/08 12:02:06;;;;;;;10.43;2.10;;;23.80;96.30;;;;;;4986449;28;205661;-81
2022/07/08 12:04:32;;;;;;;9.57;2.25;;;24.00;96.50;;;;;;4971268;28;131327;-81
2022/07/08 12:07:17;;;;;;;11.00;2.30;;;24.00;96.20;;;;;;4940868;28;94157;-82
2022/07/08 12:09:54;;;;;;;10.85;2.10;;;24.40;96.20;;;;;;4998392;28;202512;-82
2022/07/08 12:12:22;;;;;;;11.70;2.00;;;24.50;94.90;;;;;;4963020;28;216915;-83
2022/07/08 12:14:50;;;;;;;10.52;2.50;;;24.60;95.80;;;;;;4984165;28;164621;-82
2022/07/08 12:17:27;;;;;;;12.30;2.22;;;24.60;95.20;;;;;;4946218;28;209076;-82
2022/07/08 12:19:57;;;;;;;14.00;2.88;;;24.30;95.00;;;;;;4985359;28;48645;-82
2022/07/08 12:22:43;;;;;;;9.50;2.13;;;24.10;95.50;;;;;;4961291;28;207028;-82
2022/07/08 12:25:10;;;;;;;11.13;2.30;;;24.10;94.90;;;;;;5014066;28;85641;-83
2022/07/08 12:27:36;;;;;;;11.85;2.40;;;24.50;95.90;;;;;;4968881;28;206785;-82
2022/07/08 12:30:07;;;;;;;11.38;2.47;;;24.90;95.50;;;;;;4982220;28;112861;-82
2022/07/08 12:32:40;;;;;;;;;;;25.20;95.10;;;;;;4966903;28;143247;-82
2022/07/08 12:35:08;;;;;;;9.57;2.35;;;25.50;93.80;;;;;;5009083;28;197139;-82
2022/07/08 12:37:35;;;;;;;12.20;2.45;;;25.20;93.30;;;;;;4942250;28;208719;-82